createdAt,value
2019-03-29T00:01:43.532Z,98415.89
2019-03-29T00:04:15.774Z,98411.88
2019-03-29T00:06:48.113Z,98408.56
2019-03-29T00:09:20.427Z,98403.08
2019-03-29T00:11:53.686Z,98396.14
2019-03-29T00:14:25.986Z,98402.52
2019-03-29T00:16:58.298Z,98407.16
2019-03-29T00:19:30.633Z,98408.00
2019-03-29T00:22:02.950Z,98409.23
2019-03-29T00:24:35.549Z,98414.42
2019-03-29T00:27:08.178Z,98411.45
2019-03-29T00:29:40.464Z,98411.45
2019-03-29T00:32:13.442Z,98410.18
2019-03-29T00:34:46.046Z,98403.31
2019-03-29T00:37:19.148Z,98404.12
2019-03-29T00:39:51.425Z,98401.05
2019-03-29T00:42:23.750Z,98404.41
2019-03-29T00:44:56.089Z,98398.97
2019-03-29T00:47:28.367Z,98402.70
2019-03-29T00:50:00.949Z,98412.54
2019-03-29T00:52:33.332Z,98409.56
2019-03-29T00:55:05.682Z,98408.56
2019-03-29T00:57:39.185Z,98409.64
2019-03-29T01:00:11.932Z,98403.20
2019-03-29T01:02:44.927Z,98396.45
2019-03-29T01:05:17.344Z,98397.14
2019-03-29T01:07:49.709Z,98397.05
2019-03-29T01:10:22.882Z,98401.21
2019-03-29T01:13:03.719Z,98396.42
2019-03-29T01:15:36.183Z,98399.34
2019-03-29T01:18:08.546Z,98401.01
2019-03-29T01:20:41.247Z,98390.62
2019-03-29T01:23:13.627Z,98387.97
2019-03-29T01:25:45.912Z,98383.77
2019-03-29T01:28:18.232Z,98379.33
2019-03-29T01:30:50.553Z,98381.75
2019-03-29T01:33:24.322Z,98388.14
2019-03-29T01:35:57.567Z,98390.22
2019-03-29T01:38:29.983Z,98390.56
2019-03-29T01:41:03.553Z,98383.23
2019-03-29T01:43:36.718Z,98379.28
2019-03-29T01:46:09.146Z,98373.15
2019-03-29T01:48:43.310Z,98361.86
2019-03-29T01:51:15.640Z,98370.27
2019-03-29T01:53:50.682Z,98367.08
2019-03-29T01:56:24.192Z,98367.83
2019-03-29T01:58:56.780Z,98369.97
2019-03-29T02:01:29.172Z,98366.97
2019-03-29T02:04:05.795Z,98363.41
2019-03-29T02:06:37.277Z,98356.48
2019-03-29T02:09:10.050Z,98367.12
2019-03-29T02:11:42.324Z,98373.40
2019-03-29T02:14:15.083Z,98367.19
2019-03-29T02:16:47.445Z,98367.77
2019-03-29T02:19:19.661Z,98377.20
2019-03-29T02:21:52.340Z,98375.44
2019-03-29T02:24:24.611Z,98372.08
2019-03-29T02:26:57.361Z,98370.66
2019-03-29T02:29:29.897Z,98367.67
2019-03-29T02:32:04.548Z,98366.75
2019-03-29T02:34:37.008Z,98368.47
2019-03-29T02:37:09.326Z,98370.95
2019-03-29T02:39:41.794Z,98357.86
2019-03-29T02:42:15.000Z,98359.81
2019-03-29T02:44:51.615Z,98364.41
2019-03-29T02:47:24.353Z,98361.80
2019-03-29T02:49:56.644Z,98363.92
2019-03-29T02:52:28.968Z,98367.16
2019-03-29T02:55:01.307Z,98364.65
2019-03-29T02:57:34.251Z,98368.31
2019-03-29T03:00:08.238Z,98361.51
2019-03-29T03:02:40.729Z,98367.04
2019-03-29T03:05:13.277Z,98362.78
2019-03-29T03:07:45.806Z,98366.19
2019-03-29T03:10:21.279Z,98362.23
2019-03-29T03:12:54.193Z,98369.01
2019-03-29T03:15:26.492Z,98366.94
2019-03-29T03:17:58.848Z,98373.43
2019-03-29T03:20:31.123Z,98375.26
2019-03-29T03:23:03.500Z,98369.28
2019-03-29T03:25:37.135Z,98371.36
2019-03-29T03:28:09.666Z,98370.83
2019-03-29T03:30:43.926Z,98367.42
2019-03-29T03:33:16.315Z,98372.59
2019-03-29T03:35:49.562Z,98374.71
2019-03-29T03:38:22.044Z,98383.36
2019-03-29T03:40:54.319Z,98383.96
2019-03-29T03:43:27.694Z,98385.59
2019-03-29T03:45:59.977Z,98393.74
2019-03-29T03:48:32.349Z,98397.76
2019-03-29T03:51:05.375Z,98404.47
2019-03-29T03:53:37.907Z,98407.61
2019-03-29T03:56:11.593Z,98406.48
2019-03-29T03:58:44.288Z,98410.81
2019-03-29T04:01:16.577Z,98410.97
2019-03-29T04:03:51.516Z,98412.45
2019-03-29T04:06:23.844Z,98413.67
2019-03-29T04:08:57.731Z,98414.05
2019-03-29T04:11:29.987Z,98415.86
2019-03-29T04:14:02.551Z,98414.44
2019-03-29T04:16:34.976Z,98417.88
2019-03-29T04:19:07.272Z,98421.39
2019-03-29T04:21:39.591Z,98414.08
2019-03-29T04:24:14.006Z,98414.58
2019-03-29T04:26:46.205Z,98411.45
2019-03-29T04:29:18.930Z,98420.80
2019-03-29T04:31:51.707Z,98423.80
2019-03-29T04:34:25.221Z,98416.98
2019-03-29T04:36:58.515Z,98414.67
2019-03-29T04:39:30.998Z,98412.70
2019-03-29T04:42:03.195Z,98406.02
2019-03-29T04:44:35.582Z,98407.45
2019-03-29T04:47:07.827Z,98404.48
2019-03-29T04:49:40.178Z,98396.36
2019-03-29T04:52:12.411Z,98403.39
2019-03-29T04:54:44.561Z,98399.32
2019-03-29T04:57:18.441Z,98404.44
2019-03-29T04:59:51.582Z,98404.55
2019-03-29T05:02:24.445Z,98406.99
2019-03-29T05:04:56.760Z,98411.36
2019-03-29T05:07:29.216Z,98405.03
2019-03-29T05:10:01.508Z,98408.91
2019-03-29T05:12:33.683Z,98408.61
2019-03-29T05:15:06.901Z,98411.61
2019-03-29T05:17:39.130Z,98412.05
2019-03-29T05:20:11.693Z,98412.95
2019-03-29T05:22:44.369Z,98414.13
2019-03-29T05:25:17.261Z,98412.02
2019-03-29T05:27:49.639Z,98420.67
2019-03-29T05:30:21.944Z,98424.89
2019-03-29T05:32:54.145Z,98420.46
2019-03-29T05:35:26.388Z,98425.64
2019-03-29T05:37:58.644Z,98423.59
2019-03-29T05:40:35.155Z,98421.92
2019-03-29T05:43:05.133Z,98420.16
2019-03-29T05:45:37.331Z,98422.30
2019-03-29T05:48:09.585Z,98420.69
2019-03-29T05:50:41.788Z,98417.34
2019-03-29T05:53:14.165Z,98418.20
2019-03-29T05:55:48.416Z,98416.58
2019-03-29T05:58:20.833Z,98417.75
2019-03-29T06:00:53.680Z,98422.34
2019-03-29T06:03:25.928Z,98422.73
2019-03-29T06:05:58.258Z,98427.89
2019-03-29T06:08:30.489Z,98426.31
2019-03-29T06:11:02.824Z,98422.13
2019-03-29T06:13:35.088Z,98426.99
2019-03-29T06:16:07.495Z,98417.83
2019-03-29T06:18:39.718Z,98425.17
2019-03-29T06:21:13.577Z,98426.11
2019-03-29T06:23:45.881Z,98426.22
2019-03-29T06:26:18.212Z,98425.36
2019-03-29T06:28:50.546Z,98424.78
2019-03-29T06:31:22.735Z,98421.73
2019-03-29T06:33:55.126Z,98427.84
2019-03-29T06:36:30.433Z,98425.86
2019-03-29T06:39:05.753Z,98425.34
2019-03-29T06:41:38.232Z,98435.78
2019-03-29T06:44:10.575Z,98431.85
2019-03-29T06:46:42.912Z,98431.04
2019-03-29T06:49:22.555Z,98433.47
2019-03-29T06:51:54.945Z,98432.06
2019-03-29T06:54:27.493Z,98424.58
2019-03-29T06:56:59.937Z,98428.80
2019-03-29T06:59:32.888Z,98428.95
2019-03-29T07:02:05.208Z,98432.66
2019-03-29T07:04:38.342Z,98434.36
2019-03-29T07:07:11.979Z,98435.77
2019-03-29T07:09:47.649Z,98428.39
2019-03-29T07:12:19.991Z,98435.08
2019-03-29T07:14:54.358Z,98430.06
2019-03-29T07:17:27.809Z,98434.17
2019-03-29T07:20:00.262Z,98432.94
2019-03-29T07:22:34.639Z,98422.12
2019-03-29T07:25:09.101Z,98430.87
2019-03-29T07:27:46.738Z,98433.64
2019-03-29T07:30:16.098Z,98434.09
2019-03-29T07:32:48.357Z,98447.30
2019-03-29T07:35:20.591Z,98441.20
2019-03-29T07:37:54.203Z,98446.80
2019-03-29T07:40:26.906Z,98445.75
2019-03-29T07:42:59.175Z,98446.97
2019-03-29T07:45:31.687Z,98448.82
2019-03-29T07:48:03.909Z,98439.68
2019-03-29T07:50:36.131Z,98427.83
2019-03-29T07:53:08.383Z,98430.75
2019-03-29T07:55:43.560Z,98437.12
2019-03-29T07:58:16.847Z,98437.72
2019-03-29T08:00:53.352Z,98440.14
2019-03-29T08:03:27.710Z,98438.97
2019-03-29T08:06:00.148Z,98437.34
2019-03-29T08:08:34.415Z,98442.68
2019-03-29T08:11:06.566Z,98433.81
2019-03-29T08:13:39.058Z,98432.05
2019-03-29T08:16:13.851Z,98428.52
2019-03-29T08:18:47.545Z,98423.42
2019-03-29T08:21:19.736Z,98426.54
2019-03-29T08:23:53.514Z,98429.13
2019-03-29T08:26:26.988Z,98424.84
2019-03-29T08:28:59.365Z,98427.58
2019-03-29T08:31:31.538Z,98419.06
2019-03-29T08:34:04.946Z,98416.23
2019-03-29T08:36:38.169Z,98420.41
2019-03-29T08:39:10.636Z,98420.60
2019-03-29T08:41:44.236Z,98422.33
2019-03-29T08:44:17.588Z,98425.34
2019-03-29T08:46:50.296Z,98416.25
2019-03-29T08:49:22.672Z,98420.45
2019-03-29T08:51:56.176Z,98419.44
2019-03-29T08:54:28.562Z,98417.44
2019-03-29T08:57:00.938Z,98424.12
2019-03-29T08:59:33.336Z,98415.47
2019-03-29T09:02:05.985Z,98420.77
2019-03-29T09:04:38.445Z,98429.59
2019-03-29T09:07:10.816Z,98424.05
2019-03-29T09:09:46.368Z,98427.33
2019-03-29T09:12:17.970Z,98428.61
2019-03-29T09:14:50.287Z,98429.84
2019-03-29T09:17:22.761Z,98421.17
2019-03-29T09:19:54.926Z,98425.27
2019-03-29T09:22:27.047Z,98418.22
2019-03-29T09:25:00.505Z,98413.75
2019-03-29T09:27:33.362Z,98416.22
2019-03-29T09:30:10.282Z,98414.33
2019-03-29T09:32:42.525Z,98407.51
2019-03-29T09:35:15.685Z,98414.61
2019-03-29T09:37:49.877Z,98406.39
2019-03-29T09:40:24.397Z,98416.88
2019-03-29T09:43:08.426Z,98416.10
2019-03-29T09:45:36.054Z,98413.97
2019-03-29T09:48:08.325Z,98413.27
2019-03-29T09:50:42.758Z,98412.52
2019-03-29T09:53:15.190Z,98413.84
2019-03-29T09:55:47.261Z,98419.01
2019-03-29T09:58:22.052Z,98413.27
2019-03-29T10:00:55.704Z,98416.94
2019-03-29T10:03:28.003Z,98411.74
2019-03-29T10:06:02.618Z,98412.48
2019-03-29T10:08:34.858Z,98415.31
2019-03-29T10:11:07.599Z,98415.22
2019-03-29T10:13:39.977Z,98412.62
2019-03-29T10:16:12.447Z,98406.58
2019-03-29T10:18:44.739Z,98407.39
2019-03-29T10:21:20.574Z,98404.97
2019-03-29T10:23:55.481Z,98413.39
2019-03-29T10:26:27.679Z,98405.53
2019-03-29T10:29:00.719Z,98407.44
2019-03-29T10:31:33.055Z,98411.36
2019-03-29T10:34:05.432Z,98414.19
2019-03-29T10:36:40.970Z,98409.57
2019-03-29T10:39:14.928Z,98413.20
2019-03-29T10:41:47.073Z,98413.65
2019-03-29T10:44:19.288Z,98409.02
2019-03-29T10:46:52.717Z,98408.06
2019-03-29T10:49:26.617Z,98409.84
2019-03-29T10:52:01.649Z,98411.77
2019-03-29T10:54:33.878Z,98404.20
2019-03-29T10:57:09.757Z,98400.40
2019-03-29T10:59:41.879Z,98405.34
2019-03-29T11:02:14.359Z,98405.75
2019-03-29T11:04:47.392Z,98399.92
2019-03-29T11:07:21.100Z,98403.70
2019-03-29T11:09:53.516Z,98398.23
2019-03-29T11:12:25.844Z,98400.91
2019-03-29T11:14:58.134Z,98391.26
2019-03-29T11:17:30.303Z,98391.57
2019-03-29T11:20:05.285Z,98392.09
2019-03-29T11:22:40.372Z,98386.91
2019-03-29T11:25:12.543Z,98378.74
2019-03-29T11:27:44.727Z,98388.62
2019-03-29T11:30:18.372Z,98384.94
2019-03-29T11:32:50.731Z,98384.67
2019-03-29T11:35:23.016Z,98388.13
2019-03-29T11:37:55.188Z,98389.34
2019-03-29T11:40:28.602Z,98384.11
2019-03-29T11:43:00.991Z,98380.63
2019-03-29T11:45:33.599Z,98382.45
2019-03-29T11:48:08.929Z,98385.16
2019-03-29T11:50:41.313Z,98378.84
2019-03-29T11:53:13.597Z,98385.56
2019-03-29T11:55:46.379Z,98378.67
2019-03-29T11:58:18.867Z,98373.66
2019-03-29T12:00:51.271Z,98371.22
2019-03-29T12:03:23.765Z,98364.05
2019-03-29T12:05:56.198Z,98369.77
2019-03-29T12:08:28.528Z,98362.45
2019-03-29T12:11:00.903Z,98365.02
2019-03-29T12:13:41.068Z,98363.67
2019-03-29T12:16:07.991Z,98353.58
2019-03-29T12:18:40.208Z,98347.47
2019-03-29T12:21:13.638Z,98346.12
2019-03-29T12:23:46.384Z,98343.39
2019-03-29T12:26:18.569Z,98339.66
2019-03-29T12:28:51.529Z,98336.03
2019-03-29T12:31:26.182Z,98332.17
2019-03-29T12:33:59.700Z,98326.18
2019-03-29T12:36:32.680Z,98330.48
2019-03-29T12:39:06.651Z,98327.27
2019-03-29T12:41:39.573Z,98324.30
2019-03-29T12:44:11.798Z,98323.63
2019-03-29T12:46:44.023Z,98318.63
2019-03-29T12:49:16.242Z,98317.52
2019-03-29T12:51:48.430Z,98306.17
2019-03-29T12:54:20.702Z,98308.05
2019-03-29T12:56:52.995Z,98307.45
2019-03-29T12:59:25.299Z,98317.25
2019-03-29T13:01:57.534Z,98306.20
2019-03-29T13:04:30.341Z,98308.78
2019-03-29T13:07:02.586Z,98309.09
2019-03-29T13:09:34.778Z,98311.95
2019-03-29T13:12:07.268Z,98303.16
2019-03-29T13:14:39.562Z,98305.78
2019-03-29T13:17:11.930Z,98296.36
2019-03-29T13:19:46.527Z,98298.64
2019-03-29T13:22:19.785Z,98289.25
2019-03-29T13:24:54.643Z,98283.44
2019-03-29T13:27:27.002Z,98279.73
2019-03-29T13:30:00.444Z,98271.00
2019-03-29T13:32:33.493Z,98268.38
2019-03-29T13:35:06.786Z,98268.09
2019-03-29T13:37:40.265Z,98263.71
2019-03-29T13:40:21.045Z,98263.05
2019-03-29T13:42:53.459Z,98264.26
2019-03-29T13:45:27.833Z,98259.28
2019-03-29T13:47:59.990Z,98260.05
2019-03-29T13:50:33.805Z,98266.70
2019-03-29T13:53:06.140Z,98267.03
2019-03-29T13:55:38.613Z,98260.45
2019-03-29T13:58:10.801Z,98260.11
2019-03-29T14:00:43.199Z,98257.72
2019-03-29T14:03:15.546Z,98266.62
2019-03-29T14:05:47.909Z,98260.78
2019-03-29T14:08:20.346Z,98258.41
2019-03-29T14:10:52.796Z,98258.77
2019-03-29T14:13:25.182Z,98255.48
2019-03-29T14:15:57.687Z,98249.81
2019-03-29T14:18:29.934Z,98248.09
2019-03-29T14:21:03.567Z,98251.84
2019-03-29T14:23:35.894Z,98256.70
2019-03-29T14:26:08.215Z,98255.36
2019-03-29T14:28:40.404Z,98251.95
2019-03-29T14:31:12.697Z,98264.98
2019-03-29T14:33:44.855Z,98258.30
2019-03-29T14:36:17.159Z,98259.27
2019-03-29T14:38:49.826Z,98262.55
2019-03-29T14:41:22.781Z,98264.20
2019-03-29T14:43:55.009Z,98260.36
2019-03-29T14:46:27.319Z,98262.14
2019-03-29T14:48:59.628Z,98262.91
2019-03-29T14:51:31.933Z,98261.14
2019-03-29T14:54:04.746Z,98260.97
2019-03-29T14:56:37.084Z,98265.00
2019-03-29T14:59:09.888Z,98259.62
2019-03-29T15:01:42.164Z,98251.05
2019-03-29T15:04:14.421Z,98258.58
2019-03-29T15:06:46.592Z,98257.22
2019-03-29T15:09:19.770Z,98262.63
2019-03-29T15:11:53.531Z,98252.09
2019-03-29T15:14:25.945Z,98254.19
2019-03-29T15:16:58.373Z,98244.94
2019-03-29T15:19:30.829Z,98250.09
2019-03-29T15:22:03.826Z,98249.00
2019-03-29T15:24:36.299Z,98247.79
2019-03-29T15:27:08.557Z,98250.05
2019-03-29T15:29:40.755Z,98253.91
2019-03-29T15:32:12.962Z,98249.44
2019-03-29T15:34:45.168Z,98252.95
2019-03-29T15:37:18.057Z,98244.98
2019-03-29T15:39:50.356Z,98243.70
2019-03-29T15:42:22.689Z,98248.87
2019-03-29T15:44:55.108Z,98251.37
2019-03-29T15:47:27.306Z,98252.72
2019-03-29T15:49:59.741Z,98254.41
2019-03-29T15:52:32.086Z,98258.87
2019-03-29T15:55:04.319Z,98250.28
2019-03-29T15:57:37.771Z,98246.73
2019-03-29T16:00:11.255Z,98251.56
2019-03-29T16:02:43.774Z,98243.59
2019-03-29T16:05:15.920Z,98247.09
2019-03-29T16:07:48.185Z,98242.56
2019-03-29T16:10:20.491Z,98252.10
2019-03-29T16:12:52.944Z,98253.16
2019-03-29T16:15:34.898Z,98249.61
2019-03-29T16:17:59.677Z,98242.66
2019-03-29T16:20:32.068Z,98242.66
2019-03-29T16:23:05.464Z,98245.57
2019-03-29T16:25:37.817Z,98251.60
2019-03-29T16:28:09.968Z,98245.78
2019-03-29T16:30:42.239Z,98240.45
2019-03-29T16:33:14.473Z,98242.73
2019-03-29T16:35:46.740Z,98237.19
2019-03-29T16:38:18.868Z,98239.45
2019-03-29T16:40:51.085Z,98235.95
2019-03-29T16:43:23.860Z,98239.36
2019-03-29T16:45:56.094Z,98240.98
2019-03-29T16:48:28.356Z,98237.17
2019-03-29T16:51:00.635Z,98242.80
2019-03-29T16:53:34.956Z,98237.88
2019-03-29T16:56:12.079Z,98237.19
2019-03-29T16:58:45.266Z,98241.00
2019-03-29T17:01:17.678Z,98233.03
2019-03-29T17:03:49.839Z,98235.67
2019-03-29T17:06:22.111Z,98239.58
2019-03-29T17:08:54.262Z,98242.23
2019-03-29T17:11:26.460Z,98238.74
2019-03-29T17:13:58.734Z,98246.42
2019-03-29T17:16:31.179Z,98248.12
2019-03-29T17:19:03.447Z,98245.45
2019-03-29T17:21:36.985Z,98246.77
2019-03-29T17:24:09.302Z,98248.45
2019-03-29T17:26:41.606Z,98254.94
2019-03-29T17:29:13.992Z,98247.59
2019-03-29T17:31:46.263Z,98246.59
2019-03-29T17:34:18.531Z,98249.47
2019-03-29T17:36:51.378Z,98247.59
2019-03-29T17:39:23.768Z,98250.29
2019-03-29T17:41:56.320Z,98251.81
2019-03-29T17:44:28.569Z,98249.28
2019-03-29T17:47:02.222Z,98247.63
2019-03-29T17:49:34.557Z,98251.89
2019-03-29T17:52:07.038Z,98251.64
2019-03-29T17:54:40.133Z,98257.80
2019-03-29T17:57:13.447Z,98256.30
2019-03-29T17:59:47.050Z,98256.17
2019-03-29T18:02:21.057Z,98257.63
2019-03-29T18:04:53.477Z,98262.98
2019-03-29T18:07:26.140Z,98268.05
2019-03-29T18:09:59.123Z,98264.67
2019-03-29T18:12:32.582Z,98264.20
2019-03-29T18:15:05.236Z,98264.72
2019-03-29T18:17:37.696Z,98265.11
2019-03-29T18:20:10.194Z,98260.36
2019-03-29T18:22:42.587Z,98260.91
2019-03-29T18:25:14.972Z,98258.21
2019-03-29T18:27:47.582Z,98261.22
2019-03-29T18:30:24.347Z,98260.12
2019-03-29T18:32:56.635Z,98259.19
2019-03-29T18:35:30.035Z,98263.43
2019-03-29T18:38:02.528Z,98262.83
2019-03-29T18:40:35.060Z,98263.36
2019-03-29T18:43:07.375Z,98261.02
2019-03-29T18:45:41.663Z,98259.28
2019-03-29T18:48:13.756Z,98260.69
2019-03-29T18:50:46.235Z,98264.66
2019-03-29T18:53:18.591Z,98264.86
2019-03-29T18:55:50.952Z,98262.73
2019-03-29T18:58:23.601Z,98265.24
2019-03-29T19:00:56.477Z,98262.67
2019-03-29T19:03:28.793Z,98266.89
2019-03-29T19:06:01.178Z,98272.36
2019-03-29T19:08:33.582Z,98259.77
2019-03-29T19:11:08.592Z,98270.67
2019-03-29T19:13:42.889Z,98272.84
2019-03-29T19:16:15.757Z,98272.20
2019-03-29T19:18:48.028Z,98269.74
2019-03-29T19:21:25.505Z,98272.55
2019-03-29T19:23:56.080Z,98272.69
2019-03-29T19:26:28.320Z,98276.05
2019-03-29T19:29:00.695Z,98274.09
2019-03-29T19:31:33.447Z,98272.86
2019-03-29T19:34:05.870Z,98271.65
2019-03-29T19:36:38.409Z,98274.09
2019-03-29T19:39:10.901Z,98264.23
2019-03-29T19:41:43.640Z,98264.91
2019-03-29T19:44:19.410Z,98276.34
2019-03-29T19:46:52.147Z,98274.27
2019-03-29T19:49:24.459Z,98271.03
2019-03-29T19:51:56.706Z,98275.73
2019-03-29T19:54:31.268Z,98277.34
2019-03-29T19:57:03.527Z,98274.37
2019-03-29T19:59:35.926Z,98272.89
2019-03-29T20:02:08.398Z,98277.09
2019-03-29T20:04:40.726Z,98278.53
2019-03-29T20:07:12.964Z,98283.95
2019-03-29T20:09:45.195Z,98282.53
2019-03-29T20:12:17.890Z,98285.78
2019-03-29T20:14:50.733Z,98287.86
2019-03-29T20:17:27.629Z,98290.02
2019-03-29T20:20:01.022Z,98284.85
2019-03-29T20:22:33.305Z,98280.19
2019-03-29T20:25:06.503Z,98277.94
2019-03-29T20:27:38.846Z,98272.59
2019-03-29T20:30:11.441Z,98268.88
2019-03-29T20:32:43.937Z,98270.66
2019-03-29T20:35:16.144Z,98268.69
2019-03-29T20:37:50.364Z,98271.39
2019-03-29T20:40:23.548Z,98267.19
2019-03-29T20:42:55.776Z,98267.09
2019-03-29T20:45:27.981Z,98264.70
2019-03-29T20:48:00.987Z,98270.70
2019-03-29T20:50:34.511Z,98274.92
2019-03-29T20:53:06.804Z,98268.27
2019-03-29T20:55:38.908Z,98269.86
2019-03-29T20:58:11.181Z,98280.39
2019-03-29T21:00:44.075Z,98281.89
2019-03-29T21:03:16.336Z,98273.01
2019-03-29T21:05:48.693Z,98266.84
2019-03-29T21:08:21.421Z,98271.89
2019-03-29T21:10:56.325Z,98277.53
2019-03-29T21:13:27.915Z,98273.00
2019-03-29T21:16:01.677Z,98264.08
2019-03-29T21:18:33.710Z,98267.58
2019-03-29T21:21:08.667Z,98264.34
2019-03-29T21:23:41.080Z,98271.61
2019-03-29T21:26:14.765Z,98264.01
2019-03-29T21:28:47.217Z,98262.41
2019-03-29T21:31:19.455Z,98262.83
2019-03-29T21:33:52.198Z,98259.00
2019-03-29T21:36:25.731Z,98257.41
2019-03-29T21:38:57.924Z,98253.69
2019-03-29T21:41:30.402Z,98256.56
2019-03-29T21:44:02.559Z,98255.37
2019-03-29T21:46:35.554Z,98258.94
2019-03-29T21:49:07.782Z,98257.75
2019-03-29T21:51:42.144Z,98259.78
2019-03-29T21:54:14.749Z,98262.39
2019-03-29T21:56:47.383Z,98245.33
2019-03-29T21:59:19.804Z,98248.77
2019-03-29T22:01:52.034Z,98247.88
2019-03-29T22:04:24.636Z,98247.88
2019-03-29T22:06:56.883Z,98238.30
2019-03-29T22:09:36.951Z,98234.20
2019-03-29T22:12:03.093Z,98239.29
2019-03-29T22:14:35.431Z,98234.34
2019-03-29T22:17:10.851Z,98229.00
2019-03-29T22:19:44.704Z,98233.22
2019-03-29T22:22:17.020Z,98223.39
2019-03-29T22:24:49.174Z,98219.00
2019-03-29T22:27:23.125Z,98212.25
2019-03-29T22:29:55.524Z,98208.71
2019-03-29T22:33:08.574Z,98205.26
2019-03-29T22:35:42.389Z,98200.95
2019-03-29T22:38:14.757Z,98205.73
2019-03-29T22:40:48.930Z,98211.39
2019-03-29T22:43:21.164Z,98214.15
2019-03-29T22:45:54.768Z,98214.38
2019-03-29T22:48:27.346Z,98214.00
2019-03-29T22:51:00.406Z,98210.87
2019-03-29T22:53:33.885Z,98204.80
2019-03-29T22:56:06.394Z,98203.00
2019-03-29T22:58:41.925Z,98200.50
2019-03-29T23:01:14.650Z,98201.77
2019-03-29T23:03:49.096Z,98196.54
2019-03-29T23:06:21.363Z,98193.52
2019-03-29T23:08:54.458Z,98191.44
2019-03-29T23:11:28.314Z,98187.98
2019-03-29T23:14:00.552Z,98192.19
2019-03-29T23:16:32.776Z,98188.84
2019-03-29T23:19:07.033Z,98189.13
2019-03-29T23:21:42.139Z,98184.97
2019-03-29T23:24:14.445Z,98192.52
2019-03-29T23:26:47.198Z,98186.89
2019-03-29T23:29:19.542Z,98188.64
2019-03-29T23:31:51.765Z,98187.84
2019-03-29T23:34:25.400Z,98183.44
2019-03-29T23:36:58.141Z,98179.30
2019-03-29T23:39:30.395Z,98175.42
2019-03-29T23:42:02.666Z,98174.53
2019-03-29T23:44:35.926Z,98174.52
2019-03-29T23:47:11.173Z,98171.97
2019-03-29T23:49:43.674Z,98166.30
2019-03-29T23:52:16.533Z,98163.80
2019-03-29T23:54:50.174Z,98163.42
2019-03-29T23:57:22.379Z,98168.90
2019-03-29T23:59:54.962Z,98168.52
